Weather at Metropolitan Police Department 2nd District Heliport

Public forecast

Using degrees Fahrenheit for public forecast. Weather courtesy of forecast.io.

Closest aviation weather report (METAR) to Metropolitan Police Department 2nd District Heliport

Closest report is Ronald Reagan Washington National Airport, 5.3 nm (9.7 km) SSE.

2024/07/22 11:22 (retrieved 17 minutes ago)

KDCA 221122Z 16005KT 8SM SCT009 SCT060 OVC180 26/23 A3004 RMK AO2 RAE1058 P0000 T02560228

Closest aviation forecast (TAF) to Metropolitan Police Department 2nd District Heliport

Closest forecast is Ronald Reagan Washington National Airport, 5.3 nm (9.7 km) SSE.

2024/07/22 09:04 Ammendment (retrieved 3 hours ago)

TAF AMD KDCA 220902Z 2209/2312 15005KT P6SM VCSH FEW020 BKN100 OVC250 FM221200 16006KT 6SM -SHRA BKN100 FM221800 16010KT 6SM -SHRA VCTS OVC050CB FM222300 17007KT 6SM -SHRA BR OVC020 FM230300 19004KT 5SM BR VCSH OVC015